4VG2 weather

Cool Water Airport
Ashland, Virginia, United States

Public forecast

Using degrees Fahrenheit for public forecast. Weather courtesy of forecast.io.

Closest aviation weather report (METAR) to Cool Water Airport

Closest report is Hanover County Municipal Airport, 10.4 nm (19.2 km) SSE. Retrieved 2020/05/29 03:54 UTC (10 minutes ago):

KOFP 290354Z AUTO VRB05KT 9SM OVC013 24/22 A3007 RMK AO2 SLP181 T02390217

Closest aviation forecast (TAF) to Cool Water Airport

Closest forecast is Richmond International Airport, 23.8 nm (44.0 km) SSE. Retrieved 2020-05-29 00:42 UTC (3 hours ago):

TAF KRIC 282339Z 2900/2924 17008KT P6SM SCT030 BKN150 FM290500 18008KT P6SM BKN015 FM290800 19007KT 4SM BR OVC007 FM291400 20009KT P6SM BKN020 FM291900 20012KT P6SM BKN120